Time;durP1;ratioP1;P1;durP2;ratioP2;P2;SDS_P1;SDS_P2;PMS_P1;PMS_P2;Temp;Humidity;BMP_temperature;BMP_pressure;BME280_temperature;BME280_humidity;BME280_pressure;Samples;Min_cycle;Max_cycle;Signal;HPM_P1;HPM_P2
2022/09/03 00:01:37;;;;;;;1.88;0.70;;;15.80;99.90;;;;;;5011350;28;20474;-70
2022/09/03 00:04:23;;;;;;;1.38;0.80;;;15.70;99.90;;;;;;5012386;28;20117;-72
2022/09/03 00:06:54;;;;;;;0.93;0.60;;;15.70;99.90;;;;;;5011983;28;20087;-70
2022/09/03 00:09:33;;;;;;;0.80;0.50;;;15.60;99.90;;;;;;5012011;28;20368;-70
2022/09/03 00:12:18;;;;;;;0.90;0.60;;;15.60;99.90;;;;;;5012027;28;20058;-70
2022/09/03 00:14:56;;;;;;;1.02;0.57;;;15.50;99.90;;;;;;5011372;28;20030;-70
2022/09/03 00:17:28;;;;;;;0.80;0.50;;;15.50;99.90;;;;;;5012196;28;20372;-70
2022/09/03 00:20:00;;;;;;;0.85;0.60;;;15.50;99.90;;;;;;5011752;28;20062;-70
2022/09/03 00:22:50;;;;;;;1.23;0.75;;;15.40;99.90;;;;;;5012124;28;20037;-71
2022/09/03 00:25:25;;;;;;;0.68;0.68;;;15.40;99.90;;;;;;5015637;28;20022;-71
2022/09/03 00:27:56;;;;;;;1.50;1.00;;;15.40;99.90;;;;;;5014927;28;20042;-72
2022/09/03 00:30:23;;;;;;;1.20;0.60;;;15.30;99.90;;;;;;5014851;28;20054;-70
2022/09/03 00:32:55;;;;;;;1.23;0.70;;;15.30;99.90;;;;;;5015565;28;20022;-70
2022/09/03 00:35:35;;;;;;;1.45;0.60;;;15.30;99.90;;;;;;5014317;28;20042;-70
2022/09/03 00:38:01;;;;;;;10.40;1.00;;;15.30;99.90;;;;;;5016378;28;20029;-71
2022/09/03 00:40:34;;;;;;;0.73;0.50;;;15.30;99.90;;;;;;5014761;28;20088;-70
2022/09/03 00:43:14;;;;;;;1.08;0.73;;;15.20;99.90;;;;;;5015308;28;20525;-71
2022/09/03 00:45:49;;;;;;;1.13;0.73;;;15.20;99.90;;;;;;5015374;28;20135;-71
2022/09/03 00:48:29;;;;;;;1.42;0.63;;;15.20;99.90;;;;;;5015029;28;20026;-70
2022/09/03 00:50:54;;;;;;;13.40;1.95;;;15.20;99.90;;;;;;5014213;28;20037;-71
2022/09/03 00:53:35;;;;;;;0.65;0.65;;;15.10;99.90;;;;;;5015010;28;20128;-69
2022/09/03 00:56:22;;;;;;;1.55;0.85;;;15.10;99.90;;;;;;5015190;28;20026;-70
2022/09/03 00:59:26;;;;;;;1.85;0.90;;;15.10;99.90;;;;;;5014141;28;20464;-69
2022/09/03 01:02:05;;;;;;;1.52;1.00;;;15.10;99.90;;;;;;5003366;28;20045;-71
2022/09/03 01:05:09;;;;;;;1.25;0.80;;;15.00;99.90;;;;;;5014573;28;20034;-70
2022/09/03 01:07:45;;;;;;;9.48;0.93;;;15.00;99.90;;;;;;5014073;28;20037;-70
2022/09/03 01:10:26;;;;;;;1.65;0.85;;;14.90;99.90;;;;;;5014058;28;20096;-71
2022/09/03 01:12:56;;;;;;;0.57;0.50;;;14.90;99.90;;;;;;4975123;28;20104;-69
2022/09/03 01:15:47;;;;;;;1.33;0.70;;;14.90;99.90;;;;;;4975532;28;20018;-70
2022/09/03 01:18:34;;;;;;;1.35;0.85;;;14.90;99.90;;;;;;4975023;28;20087;-70
2022/09/03 01:21:14;;;;;;;1.10;0.60;;;14.80;99.90;;;;;;4975903;28;20035;-70
2022/09/03 01:24:06;;;;;;;1.95;1.00;;;14.70;99.90;;;;;;4975259;28;20043;-70
2022/09/03 01:27:02;;;;;;;1.92;1.00;;;14.70;99.90;;;;;;4975267;28;20035;-70
2022/09/03 01:29:56;;;;;;;1.15;0.60;;;14.60;99.90;;;;;;4975708;28;20035;-69
2022/09/03 01:33:06;;;;;;;1.30;0.85;;;14.60;99.90;;;;;;4975178;28;20023;-70
2022/09/03 01:35:46;;;;;;;1.45;0.95;;;14.60;99.90;;;;;;4974412;28;20041;-71
2022/09/03 01:38:28;;;;;;;5.00;1.15;;;14.50;99.90;;;;;;4975386;28;20058;-70
2022/09/03 01:44:17;;;;;;;1.30;0.90;;;14.40;99.90;;;;;;4975903;28;20062;-71
2022/09/03 01:46:44;;;;;;;1.55;0.90;;;14.40;99.90;;;;;;4944462;28;20052;-71
2022/09/03 01:49:21;;;;;;;0.57;0.50;;;14.40;99.90;;;;;;4974366;28;20495;-70
2022/09/03 01:51:59;;;;;;;1.27;0.80;;;14.30;99.90;;;;;;4974495;28;20054;-70
2022/09/03 01:55:02;;;;;;;1.48;0.80;;;14.40;99.90;;;;;;4973678;28;20023;-72
2022/09/03 01:57:48;;;;;;;1.20;0.98;;;14.30;99.90;;;;;;4989713;28;20023;-71
2022/09/03 02:00:19;;;;;;;;;;;14.30;99.90;;;;;;4975915;28;20055;-70
2022/09/03 02:02:47;;;;;;;0.93;0.70;;;14.30;99.90;;;;;;4975176;28;19921;-70
2022/09/03 02:05:15;;;;;;;1.48;0.80;;;14.20;99.90;;;;;;4973778;28;20032;-70
2022/09/03 02:07:47;;;;;;;0.80;0.63;;;14.10;99.90;;;;;;4975222;28;20062;-70
2022/09/03 02:10:29;;;;;;;1.33;0.70;;;14.10;99.90;;;;;;4974197;28;20027;-69
2022/09/03 02:12:59;;;;;;;0.68;0.57;;;14.10;99.90;;;;;;4994064;28;20061;-70
2022/09/03 02:15:26;;;;;;;1.50;0.70;;;14.10;99.90;;;;;;4993675;28;20023;-69
2022/09/03 02:17:58;;;;;;;1.58;0.80;;;14.10;99.90;;;;;;4992874;28;20045;-69
2022/09/03 02:20:31;;;;;;;0.65;0.50;;;14.00;99.90;;;;;;4993814;28;20042;-70
2022/09/03 02:22:57;;;;;;;1.85;1.02;;;14.00;99.90;;;;;;4993942;28;20029;-69
2022/09/03 02:25:32;;;;;;;1.92;0.90;;;14.00;99.90;;;;;;4994003;28;20435;-70
2022/09/03 02:27:59;;;;;;;2.35;1.02;;;14.00;99.90;;;;;;4992623;28;20035;-70
2022/09/03 02:30:25;;;;;;;1.95;1.00;;;14.00;99.90;;;;;;4993056;28;20070;-69
2022/09/03 02:32:51;;;;;;;2.00;1.02;;;13.90;99.90;;;;;;4993774;28;20026;-70
2022/09/03 02:35:16;;;;;;;3.85;1.17;;;13.90;99.90;;;;;;4994222;28;20026;-69
2022/09/03 02:37:42;;;;;;;2.45;1.10;;;13.90;99.90;;;;;;4993494;28;20027;-70
2022/09/03 02:40:09;;;;;;;2.13;1.05;;;13.80;99.90;;;;;;4993668;28;20031;-70
2022/09/03 02:42:36;;;;;;;1.23;0.85;;;13.80;99.90;;;;;;4993495;28;20046;-70
2022/09/03 02:45:27;;;;;;;2.25;0.98;;;13.80;99.90;;;;;;4993200;28;20038;-70
2022/09/03 02:47:59;;;;;;;1.15;0.50;;;13.80;99.90;;;;;;4993344;28;20038;-70
2022/09/03 02:50:25;;;;;;;2.85;0.85;;;13.80;99.90;;;;;;4993200;28;20030;-69
2022/09/03 02:52:52;;;;;;;1.20;0.70;;;13.70;99.90;;;;;;4993114;28;20077;-70
2022/09/03 02:55:19;;;;;;;2.35;1.15;;;13.70;99.90;;;;;;4992852;28;20023;-71
2022/09/03 02:57:45;;;;;;;1.17;0.77;;;13.70;99.90;;;;;;4993300;28;20091;-69
2022/09/03 03:00:12;;;;;;;1.30;0.80;;;13.60;99.90;;;;;;4992339;28;20463;-70
2022/09/03 03:02:38;;;;;;;1.08;0.93;;;13.60;99.90;;;;;;4993208;28;20031;-71
2022/09/03 03:05:07;;;;;;;1.35;0.70;;;13.60;99.90;;;;;;4993108;28;20031;-71
2022/09/03 03:07:37;;;;;;;1.73;1.08;;;13.50;99.90;;;;;;4992656;28;20090;-70
2022/09/03 03:10:04;;;;;;;2.10;0.80;;;13.50;99.90;;;;;;4992213;28;20073;-70
2022/09/03 03:12:30;;;;;;;2.40;1.20;;;13.50;99.90;;;;;;5010265;28;20041;-70
2022/09/03 03:14:55;;;;;;;1.92;1.00;;;13.50;99.90;;;;;;5011961;28;20545;-71
2022/09/03 03:17:21;;;;;;;1.83;1.00;;;13.50;99.90;;;;;;5012229;28;20048;-69
2022/09/03 03:19:47;;;;;;;2.33;1.00;;;13.50;99.90;;;;;;5012446;28;20037;-70
2022/09/03 03:22:12;;;;;;;1.88;0.90;;;13.40;99.90;;;;;;5012150;28;20107;-70
2022/09/03 03:24:38;;;;;;;1.35;0.95;;;13.40;99.90;;;;;;5012184;28;20419;-70
2022/09/03 03:27:06;;;;;;;3.53;0.98;;;13.40;99.90;;;;;;5012466;28;20072;-70
2022/09/03 03:29:31;;;;;;;1.13;0.90;;;13.40;99.90;;;;;;5012397;28;20014;-70
2022/09/03 03:32:01;;;;;;;4.22;1.50;;;13.40;99.90;;;;;;5011698;28;20030;-69
2022/09/03 03:34:27;;;;;;;2.38;1.02;;;13.40;99.90;;;;;;5012141;28;20060;-69
2022/09/03 03:36:52;;;;;;;2.40;0.98;;;13.40;99.90;;;;;;5011965;28;20026;-69
2022/09/03 03:39:19;;;;;;;2.17;0.88;;;13.40;99.90;;;;;;5011695;28;20026;-70
2022/09/03 03:41:44;;;;;;;1.73;0.75;;;13.40;99.90;;;;;;5011467;28;20019;-69
2022/09/03 03:44:10;;;;;;;1.27;0.77;;;13.40;99.90;;;;;;5011780;28;20092;-70
2022/09/03 03:46:40;;;;;;;2.05;1.15;;;13.40;99.90;;;;;;5012832;28;20027;-71
2022/09/03 03:49:08;;;;;;;3.85;1.05;;;13.40;99.90;;;;;;5010271;28;20105;-70
2022/09/03 03:51:39;;;;;;;1.73;1.20;;;13.30;99.90;;;;;;5011379;28;20054;-69
2022/09/03 03:54:05;;;;;;;1.75;0.90;;;13.30;99.90;;;;;;5011345;28;20162;-70
2022/09/03 03:56:32;;;;;;;1.27;0.95;;;13.30;99.90;;;;;;5011519;28;20126;-69
2022/09/03 03:58:58;;;;;;;2.00;0.90;;;13.30;99.90;;;;;;5011136;28;20030;-69
2022/09/03 04:01:25;;;;;;;2.45;0.60;;;13.30;99.90;;;;;;5011046;28;20031;-70
2022/09/03 04:03:53;;;;;;;5.43;1.20;;;13.30;99.90;;;;;;5011727;28;20021;-69
2022/09/03 04:06:20;;;;;;;1.02;0.63;;;13.30;99.90;;;;;;5011700;28;20030;-70
2022/09/03 04:08:47;;;;;;;2.47;1.15;;;13.30;99.90;;;;;;5011191;28;20030;-70
2022/09/03 04:11:19;;;;;;;1.77;1.00;;;13.30;99.90;;;;;;5011072;28;20049;-70
2022/09/03 04:13:45;;;;;;;1.23;0.70;;;13.20;99.90;;;;;;5011750;28;20041;-71
2022/09/03 04:16:14;;;;;;;0.98;0.88;;;13.20;99.90;;;;;;5011320;28;20022;-70
2022/09/03 04:18:40;;;;;;;1.20;0.95;;;13.20;99.90;;;;;;5011558;28;20018;-70
2022/09/03 04:21:12;;;;;;;3.13;0.93;;;13.10;99.90;;;;;;5011248;28;20019;-70
2022/09/03 04:23:41;;;;;;;2.03;1.05;;;13.10;99.90;;;;;;5010708;28;20022;-70
2022/09/03 04:26:08;;;;;;;5.28;1.15;;;13.00;99.90;;;;;;5011093;28;20081;-71
2022/09/03 04:28:34;;;;;;;1.52;0.80;;;13.10;99.90;;;;;;5010324;28;20040;-69
2022/09/03 04:31:02;;;;;;;1.05;0.88;;;13.10;99.90;;;;;;5010884;28;20128;-69
2022/09/03 04:33:28;;;;;;;1.30;0.85;;;13.00;99.90;;;;;;5008407;28;20061;-70
2022/09/03 04:36:05;;;;;;;4.07;0.88;;;13.00;99.90;;;;;;5010645;28;20034;-72
2022/09/03 04:38:32;;;;;;;1.33;0.82;;;13.00;99.90;;;;;;5011709;28;20024;-72
2022/09/03 04:40:59;;;;;;;1.65;0.95;;;13.00;99.90;;;;;;5011738;28;20026;-72
2022/09/03 04:43:25;;;;;;;1.20;0.93;;;13.00;99.90;;;;;;5009502;28;20026;-71
2022/09/03 04:45:51;;;;;;;1.27;0.85;;;12.90;99.90;;;;;;5010417;28;20026;-71
2022/09/03 04:48:16;;;;;;;7.00;1.10;;;12.90;99.90;;;;;;5011687;28;20091;-71
2022/09/03 04:50:42;;;;;;;1.40;0.80;;;12.90;99.90;;;;;;5009728;28;20089;-72
2022/09/03 04:53:07;;;;;;;1.02;0.75;;;12.90;99.90;;;;;;5011080;28;20030;-71
2022/09/03 04:55:35;;;;;;;2.38;1.00;;;12.80;99.90;;;;;;5011236;28;20026;-72
2022/09/03 04:58:00;;;;;;;2.35;1.17;;;12.90;99.90;;;;;;5005412;28;20026;-72
2022/09/03 05:00:26;;;;;;;1.55;0.93;;;12.90;99.90;;;;;;5007582;28;20039;-71
2022/09/03 05:02:52;;;;;;;1.45;0.80;;;12.90;99.90;;;;;;5005612;28;20023;-71
2022/09/03 05:05:18;;;;;;;4.55;1.58;;;12.90;99.90;;;;;;5008957;28;20060;-71
2022/09/03 05:07:43;;;;;;;1.67;1.00;;;12.90;99.90;;;;;;5009837;28;20107;-72
2022/09/03 05:10:19;;;;;;;2.75;1.35;;;12.80;99.90;;;;;;5011106;28;20351;-72
2022/09/03 05:12:56;;;;;;;1.92;1.00;;;12.90;99.90;;;;;;5013663;28;20501;-71
2022/09/03 05:15:21;;;;;;;1.45;1.17;;;13.00;99.90;;;;;;5014458;28;20041;-71
2022/09/03 05:17:47;;;;;;;1.70;0.90;;;13.10;99.90;;;;;;5013952;28;20034;-72
2022/09/03 05:20:13;;;;;;;1.67;0.85;;;13.10;99.90;;;;;;5014453;28;20065;-70
2022/09/03 05:22:39;;;;;;;1.25;0.60;;;13.20;99.90;;;;;;5014188;28;20026;-71
2022/09/03 05:25:05;;;;;;;2.80;0.93;;;13.20;99.90;;;;;;5008071;28;20038;-71
2022/09/03 05:27:31;;;;;;;1.52;1.05;;;13.30;99.90;;;;;;5012479;28;20060;-71
2022/09/03 05:29:57;;;;;;;1.90;0.90;;;13.30;99.90;;;;;;5014385;28;20029;-71
2022/09/03 05:32:24;;;;;;;1.08;0.80;;;13.30;99.90;;;;;;5014545;28;20654;-71
2022/09/03 05:34:49;;;;;;;2.83;0.93;;;13.40;99.90;;;;;;5014639;28;20042;-70
2022/09/03 05:37:15;;;;;;;15.73;1.38;;;13.50;99.90;;;;;;5014100;28;20041;-70
2022/09/03 05:39:40;;;;;;;5.43;0.75;;;13.60;99.90;;;;;;5010568;28;20026;-72
2022/09/03 05:42:06;;;;;;;1.77;1.10;;;13.60;99.90;;;;;;5013261;28;20026;-71
2022/09/03 05:44:32;;;;;;;2.33;1.08;;;13.70;99.90;;;;;;5014550;28;20054;-71
2022/09/03 05:46:59;;;;;;;1.20;0.80;;;13.70;99.90;;;;;;5012469;28;20026;-72
2022/09/03 05:49:24;;;;;;;0.68;0.60;;;13.80;99.90;;;;;;5008039;28;20030;-71
2022/09/03 05:51:50;;;;;;;1.10;0.73;;;14.00;99.90;;;;;;5013290;28;20160;-70
2022/09/03 05:54:15;;;;;;;1.02;0.73;;;14.00;99.90;;;;;;5010894;28;20069;-71
2022/09/03 05:56:41;;;;;;;0.98;0.57;;;14.10;99.90;;;;;;5014180;28;20471;-71
2022/09/03 05:59:08;;;;;;;1.42;0.95;;;14.20;99.90;;;;;;5012607;28;20061;-72
2022/09/03 06:01:42;;;;;;;7.80;1.10;;;14.30;99.90;;;;;;5012226;28;20091;-71
2022/09/03 06:04:10;;;;;;;1.55;1.25;;;14.40;99.90;;;;;;5012908;28;20034;-70
2022/09/03 06:06:38;;;;;;;3.33;1.25;;;14.50;99.90;;;;;;5013785;28;20057;-71
2022/09/03 06:09:06;;;;;;;3.47;1.02;;;14.50;99.90;;;;;;5012504;28;20054;-72
2022/09/03 06:11:33;;;;;;;2.15;0.85;;;14.60;99.90;;;;;;5013846;28;20054;-70
2022/09/03 06:14:01;;;;;;;2.65;0.80;;;14.70;99.90;;;;;;5004205;28;20030;-72
2022/09/03 06:16:28;;;;;;;1.50;0.70;;;14.80;99.90;;;;;;5013144;28;20023;-71
2022/09/03 06:18:54;;;;;;;10.52;0.98;;;14.90;99.90;;;;;;5001198;28;20025;-73
2022/09/03 06:21:20;;;;;;;0.68;0.68;;;14.90;99.90;;;;;;5012736;28;20022;-72
2022/09/03 06:23:50;;;;;;;0.90;0.60;;;15.00;99.90;;;;;;5012906;28;20057;-71
2022/09/03 06:26:20;;;;;;;2.35;0.73;;;15.10;99.90;;;;;;5013329;28;20082;-70
2022/09/03 06:28:47;;;;;;;0.95;0.70;;;15.20;99.90;;;;;;5008397;28;20476;-71
2022/09/03 06:31:15;;;;;;;0.98;0.70;;;15.30;99.90;;;;;;5011767;28;20133;-75
2022/09/03 06:33:41;;;;;;;3.42;0.90;;;15.30;99.90;;;;;;5009836;28;20038;-71
2022/09/03 06:36:09;;;;;;;1.58;0.60;;;15.40;99.90;;;;;;5012821;28;20082;-72
2022/09/03 06:38:36;;;;;;;1.85;0.82;;;15.50;99.90;;;;;;5011308;28;20053;-71
2022/09/03 06:41:26;;;;;;;1.55;0.82;;;15.60;99.90;;;;;;5012890;28;20038;-73
2022/09/03 06:43:54;;;;;;;0.60;0.60;;;15.70;99.90;;;;;;5009025;28;20029;-74
2022/09/03 06:46:22;;;;;;;2.33;0.90;;;15.80;99.90;;;;;;5012139;28;20018;-73
2022/09/03 06:48:49;;;;;;;0.70;0.70;;;15.70;99.90;;;;;;5006687;28;20234;-72
2022/09/03 06:51:20;;;;;;;6.00;0.50;;;15.80;99.90;;;;;;5012123;28;20108;-72
2022/09/03 06:53:49;;;;;;;1.63;0.65;;;15.90;99.90;;;;;;5009555;28;20133;-71
2022/09/03 06:56:18;;;;;;;2.30;0.90;;;16.10;99.90;;;;;;5011633;28;20038;-72
2022/09/03 06:58:45;;;;;;;1.42;0.77;;;16.20;99.90;;;;;;5011248;28;20030;-77
2022/09/03 07:01:14;;;;;;;1.02;0.60;;;16.20;99.90;;;;;;5009389;28;20363;-72
2022/09/03 07:03:41;;;;;;;1.48;0.50;;;16.30;99.90;;;;;;5009809;28;20026;-72
2022/09/03 07:06:13;;;;;;;0.85;0.60;;;16.30;99.90;;;;;;5011716;28;20476;-74
2022/09/03 07:08:41;;;;;;;1.13;0.95;;;16.30;99.90;;;;;;5011273;28;20121;-73
2022/09/03 07:11:16;;;;;;;1.63;0.82;;;16.30;99.90;;;;;;5011202;28;20455;-75
2022/09/03 07:13:44;;;;;;;1.83;1.13;;;16.30;99.90;;;;;;5010990;28;20021;-70
2022/09/03 07:16:12;;;;;;;2.42;0.98;;;16.30;99.90;;;;;;5011420;28;20538;-73
2022/09/03 07:18:38;;;;;;;1.13;0.65;;;16.40;99.90;;;;;;5010867;28;20064;-71
2022/09/03 07:21:07;;;;;;;1.08;0.70;;;16.50;99.90;;;;;;5010118;28;20038;-72
2022/09/03 07:23:34;;;;;;;1.02;0.60;;;16.60;99.90;;;;;;5012525;28;20030;-72
2022/09/03 07:26:02;;;;;;;1.13;0.73;;;16.60;99.90;;;;;;5012654;28;20137;-72
2022/09/03 07:28:31;;;;;;;0.68;0.47;;;16.70;99.90;;;;;;5010706;28;20654;-71
2022/09/03 07:31:05;;;;;;;0.93;0.70;;;16.90;99.90;;;;;;5012168;28;20042;-74
2022/09/03 07:33:31;;;;;;;1.85;0.75;;;17.00;99.90;;;;;;5007786;28;20121;-75
2022/09/03 07:36:06;;;;;;;1.83;0.70;;;17.20;99.90;;;;;;5010389;28;20026;-74
2022/09/03 07:38:33;;;;;;;4.55;0.60;;;17.30;99.90;;;;;;4999787;28;20866;-73
2022/09/03 07:41:00;;;;;;;1.45;0.68;;;17.40;99.90;;;;;;5011015;28;20036;-72
2022/09/03 07:43:34;;;;;;;1.00;0.60;;;17.50;99.90;;;;;;5009487;28;20027;-71
2022/09/03 07:46:00;;;;;;;2.83;0.68;;;17.70;99.90;;;;;;5009480;28;20026;-71
2022/09/03 07:48:26;;;;;;;2.22;1.20;;;17.90;99.90;;;;;;5010281;28;20128;-75
2022/09/03 07:50:58;;;;;;;1.35;0.63;;;18.00;99.90;;;;;;5007691;28;20036;-76
2022/09/03 07:53:24;;;;;;;1.23;0.47;;;18.10;99.90;;;;;;5011706;28;20026;-71
2022/09/03 07:55:50;;;;;;;2.35;1.00;;;18.20;99.90;;;;;;5008159;28;20030;-74
2022/09/03 07:58:21;;;;;;;3.30;0.57;;;18.30;99.90;;;;;;5009177;28;20049;-71
2022/09/03 08:00:47;;;;;;;0.65;0.60;;;18.50;99.90;;;;;;5008642;28;20023;-72
2022/09/03 08:03:12;;;;;;;1.40;0.77;;;18.60;99.90;;;;;;5007358;28;20045;-74
2022/09/03 08:05:38;;;;;;;0.70;0.70;;;18.70;99.90;;;;;;5010474;28;20109;-75
2022/09/03 08:08:05;;;;;;;1.08;0.93;;;18.80;99.90;;;;;;5008637;28;20054;-77
2022/09/03 08:10:37;;;;;;;2.60;0.88;;;18.90;99.90;;;;;;5009207;28;20090;-74
2022/09/03 08:13:04;;;;;;;1.33;0.63;;;18.90;99.90;;;;;;5009024;28;20022;-74
2022/09/03 08:15:30;;;;;;;1.98;0.60;;;19.10;99.90;;;;;;5007023;28;20049;-76
2022/09/03 08:17:56;;;;;;;1.13;0.63;;;19.20;99.90;;;;;;5008751;28;20029;-71
2022/09/03 08:20:22;;;;;;;0.47;0.40;;;19.30;99.90;;;;;;5007277;28;20035;-70
2022/09/03 08:22:47;;;;;;;2.03;0.77;;;19.40;99.90;;;;;;5009361;28;20102;-70
2022/09/03 08:25:13;;;;;;;4.55;0.95;;;19.60;99.90;;;;;;5006711;28;20061;-75
2022/09/03 08:27:40;;;;;;;1.65;0.80;;;19.70;99.90;;;;;;5004626;28;20069;-70
2022/09/03 08:30:10;;;;;;;9.35;1.02;;;19.80;99.90;;;;;;5005418;28;20029;-70
2022/09/03 08:32:36;;;;;;;10.73;0.88;;;19.90;99.90;;;;;;5008522;28;20034;-69
2022/09/03 08:35:03;;;;;;;0.85;0.55;;;20.00;99.90;;;;;;5010212;28;20030;-70
2022/09/03 08:37:29;;;;;;;0.70;0.60;;;20.00;99.90;;;;;;5010043;28;20034;-70
2022/09/03 08:39:54;;;;;;;2.53;0.80;;;20.10;99.90;;;;;;5007439;28;20029;-69
2022/09/03 08:42:45;;;;;;;1.67;0.80;;;20.20;99.90;;;;;;5009177;28;20034;-74
2022/09/03 08:45:15;;;;;;;2.50;0.60;;;20.30;99.90;;;;;;5013635;28;20498;-74
2022/09/03 08:47:53;;;;;;;1.83;0.80;;;20.30;99.90;;;;;;5009662;28;20048;-74
2022/09/03 08:50:30;;;;;;;0.80;0.47;;;20.30;99.90;;;;;;5013074;28;20023;-75
2022/09/03 08:53:08;;;;;;;1.15;0.73;;;20.50;99.90;;;;;;5012669;28;20125;-77
2022/09/03 08:55:45;;;;;;;1.17;0.73;;;20.60;99.90;;;;;;5014640;28;20101;-73
2022/09/03 08:58:17;;;;;;;1.20;0.73;;;20.80;99.90;;;;;;5010805;28;20022;-72
2022/09/03 09:01:10;;;;;;;1.63;0.95;;;20.90;99.90;;;;;;5012946;28;20827;-77
2022/09/03 09:03:52;;;;;;;3.10;0.47;;;21.10;99.90;;;;;;5013043;28;20071;-75
2022/09/03 09:06:38;;;;;;;0.77;0.68;;;21.00;99.90;;;;;;5010658;28;20030;-74
2022/09/03 09:09:05;;;;;;;0.95;0.60;;;21.10;99.90;;;;;;5007704;28;20179;-71
2022/09/03 09:11:55;;;;;;;3.83;0.90;;;21.20;99.90;;;;;;5009140;28;20046;-68
2022/09/03 09:14:55;;;;;;;1.48;0.82;;;21.30;99.90;;;;;;4998618;28;20173;-76
2022/09/03 09:17:53;;;;;;;0.55;0.38;;;21.40;99.90;;;;;;5009038;28;20031;-73
2022/09/03 09:20:43;;;;;;;20.05;0.98;;;21.40;99.90;;;;;;5011887;28;20034;-68
2022/09/03 09:23:25;;;;;;;1.77;0.80;;;21.50;99.90;;;;;;5011673;28;20030;-72
2022/09/03 09:25:54;;;;;;;0.68;0.35;;;21.60;99.90;;;;;;5014560;28;20395;-72
2022/09/03 09:28:22;;;;;;;1.17;0.82;;;21.70;99.90;;;;;;5013359;28;20069;-70
2022/09/03 09:30:52;;;;;;;0.90;0.60;;;21.70;99.90;;;;;;5014619;28;20486;-70
2022/09/03 09:33:19;;;;;;;1.33;0.73;;;21.80;99.90;;;;;;5013762;28;20018;-73
2022/09/03 09:35:46;;;;;;;1.00;0.57;;;21.90;99.90;;;;;;5012654;28;20021;-71
2022/09/03 09:38:12;;;;;;;1.38;0.63;;;21.90;99.90;;;;;;5010248;28;20026;-74
2022/09/03 09:40:41;;;;;;;1.23;0.88;;;21.90;99.90;;;;;;5013021;28;20026;-74
2022/09/03 09:43:14;;;;;;;1.60;0.77;;;21.80;99.90;;;;;;5012566;28;20018;-75
2022/09/03 09:45:43;;;;;;;1.73;0.90;;;21.70;99.90;;;;;;5014212;28;20081;-69
2022/09/03 09:48:30;;;;;;;1.05;0.55;;;21.80;99.90;;;;;;5014087;28;20065;-73
2022/09/03 09:51:12;;;;;;;1.33;0.80;;;21.90;99.90;;;;;;5013720;28;20030;-71
2022/09/03 09:53:40;;;;;;;0.85;0.60;;;22.10;99.90;;;;;;5013978;28;20026;-71
2022/09/03 09:56:07;;;;;;;2.33;1.10;;;22.20;99.90;;;;;;5011705;28;20033;-72
2022/09/03 09:58:34;;;;;;;11.32;0.82;;;22.30;99.90;;;;;;5014118;28;20038;-74
2022/09/03 10:01:12;;;;;;;7.18;0.95;;;22.40;99.90;;;;;;5013567;28;20076;-73
2022/09/03 10:03:54;;;;;;;1.20;0.55;;;22.40;99.90;;;;;;5013936;28;20021;-72
2022/09/03 10:09:15;;;;;;;0.93;0.73;;;22.60;99.90;;;;;;5013906;28;20053;-73
2022/09/03 10:11:44;;;;;;;;;;;22.70;99.90;;;;;;5013815;28;20137;-72
2022/09/03 10:14:20;;;;;;;1.15;0.45;;;22.70;99.60;;;;;;5012974;28;19935;-72
2022/09/03 10:16:54;;;;;;;0.65;0.47;;;22.80;99.90;;;;;;5010911;28;20044;-68
2022/09/03 10:19:25;;;;;;;;;;;22.80;99.90;;;;;;5014835;28;20030;-73
2022/09/03 10:22:02;;;;;;;0.73;0.73;;;22.80;99.00;;;;;;5013203;28;19973;-72
2022/09/03 10:24:48;;;;;;;8.77;0.60;;;22.80;99.90;;;;;;5012815;28;20029;-72
2022/09/03 10:27:17;;;;;;;1.10;0.52;;;22.80;99.90;;;;;;5012497;28;21356;-72
2022/09/03 10:29:43;;;;;;;0.93;0.77;;;23.10;99.90;;;;;;5012738;28;20026;-74
2022/09/03 10:32:26;;;;;;;0.52;0.50;;;23.30;98.90;;;;;;5012381;28;20025;-76
2022/09/03 10:35:30;;;;;;;1.38;0.70;;;23.30;99.90;;;;;;5010012;28;20033;-73
2022/09/03 10:38:28;;;;;;;1.17;0.75;;;23.40;98.90;;;;;;5010039;28;20038;-69
2022/09/03 10:41:04;;;;;;;1.95;0.73;;;23.50;98.90;;;;;;5011889;28;20034;-78
2022/09/03 10:43:50;;;;;;;0.85;0.60;;;23.60;98.50;;;;;;5011328;28;20120;-74
2022/09/03 10:46:25;;;;;;;1.52;0.80;;;23.50;98.20;;;;;;5013102;28;20018;-74
2022/09/03 10:49:09;;;;;;;17.15;1.30;;;23.60;99.40;;;;;;5012608;28;20165;-75
2022/09/03 10:51:40;;;;;;;1.58;0.80;;;23.80;97.50;;;;;;5012748;28;20034;-74
2022/09/03 10:54:19;;;;;;;1.80;0.57;;;23.70;98.20;;;;;;5013277;28;20117;-76
2022/09/03 10:56:46;;;;;;;1.05;0.73;;;23.60;98.00;;;;;;5011127;28;20037;-73
2022/09/03 10:59:31;;;;;;;0.80;0.60;;;23.40;98.00;;;;;;5010662;28;20045;-74
2022/09/03 11:02:19;;;;;;;1.92;0.73;;;23.50;97.90;;;;;;5011024;28;20034;-72
2022/09/03 11:05:01;;;;;;;0.82;0.52;;;23.50;98.10;;;;;;5010695;28;20022;-75
2022/09/03 11:07:36;;;;;;;0.68;0.50;;;23.40;98.60;;;;;;5011528;28;20491;-72
2022/09/03 11:10:20;;;;;;;1.48;0.63;;;23.60;98.50;;;;;;5012698;28;20021;-76
2022/09/03 11:12:58;;;;;;;1.87;0.83;;;23.70;98.40;;;;;;5009924;28;20049;-75
2022/09/03 11:15:38;;;;;;;5.20;0.80;;;23.70;97.70;;;;;;5012676;28;20270;-75
2022/09/03 11:18:24;;;;;;;1.17;0.63;;;23.60;98.20;;;;;;5012100;28;20458;-75
2022/09/03 11:20:54;;;;;;;0.90;0.50;;;23.70;96.90;;;;;;5007322;28;20043;-77
2022/09/03 11:23:22;;;;;;;1.15;0.82;;;23.70;97.10;;;;;;5012839;28;20081;-77
2022/09/03 11:25:56;;;;;;;3.70;0.70;;;23.70;97.30;;;;;;5011655;28;20360;-74
2022/09/03 11:28:46;;;;;;;0.82;0.40;;;23.70;96.00;;;;;;5012082;28;20450;-75
2022/09/03 11:31:42;;;;;;;1.70;0.73;;;23.60;97.00;;;;;;5012177;28;20056;-74
2022/09/03 11:34:27;;;;;;;0.88;0.52;;;23.90;97.30;;;;;;5011932;28;20507;-72
2022/09/03 11:37:05;;;;;;;0.57;0.50;;;24.20;97.10;;;;;;5012238;28;20031;-72
2022/09/03 11:39:31;;;;;;;1.05;0.70;;;24.50;96.50;;;;;;5011834;28;20037;-75
2022/09/03 11:42:09;;;;;;;2.65;1.08;;;24.60;97.20;;;;;;5011979;28;20031;-76
2022/09/03 11:44:44;;;;;;;0.32;0.30;;;24.80;95.80;;;;;;5011828;28;20022;-77
2022/09/03 11:47:20;;;;;;;1.35;0.55;;;24.90;95.90;;;;;;5010599;28;20121;-72
2022/09/03 11:49:49;;;;;;;0.70;0.55;;;25.00;95.30;;;;;;5011291;28;20042;-73
2022/09/03 11:52:26;;;;;;;6.30;0.90;;;25.00;95.10;;;;;;5011370;28;20449;-76
2022/09/03 11:54:51;;;;;;;6.25;1.00;;;24.90;95.40;;;;;;5011096;28;20040;-79
2022/09/03 11:57:43;;;;;;;1.15;0.50;;;24.90;96.20;;;;;;5012304;28;20490;-74
2022/09/03 12:00:12;;;;;;;4.07;0.85;;;25.00;94.90;;;;;;5008565;28;20072;-71
2022/09/03 12:02:48;;;;;;;0.60;0.60;;;24.90;94.80;;;;;;5008861;28;20029;-74
2022/09/03 12:05:29;;;;;;;0.70;0.50;;;24.70;94.60;;;;;;5011500;28;20048;-74
2022/09/03 12:08:27;;;;;;;0.55;0.38;;;24.70;95.30;;;;;;5010161;28;20043;-73
2022/09/03 12:11:17;;;;;;;1.20;0.73;;;24.80;95.20;;;;;;5011653;28;20050;-72
2022/09/03 12:14:11;;;;;;;1.13;0.60;;;25.00;95.70;;;;;;5011192;28;20023;-76
2022/09/03 12:16:56;;;;;;;0.30;0.30;;;25.40;94.70;;;;;;5011245;28;20026;-73
2022/09/03 12:19:28;;;;;;;1.17;0.55;;;25.60;95.30;;;;;;5014050;28;20035;-71
2022/09/03 12:21:55;;;;;;;1.15;0.60;;;25.60;95.50;;;;;;5016033;28;20033;-70
2022/09/03 12:24:22;;;;;;;1.25;0.82;;;25.80;95.80;;;;;;5015982;28;20040;-75
2022/09/03 12:26:48;;;;;;;1.55;0.60;;;26.00;95.20;;;;;;5015995;28;20049;-78
2022/09/03 12:29:28;;;;;;;9.52;0.93;;;25.90;95.10;;;;;;5014844;28;20039;-74
2022/09/03 12:31:55;;;;;;;0.50;0.50;;;26.20;94.20;;;;;;5015516;28;20037;-70
2022/09/03 12:34:22;;;;;;;0.93;0.50;;;26.40;95.80;;;;;;5014787;28;20062;-71
2022/09/03 12:36:52;;;;;;;0.55;0.55;;;26.70;94.70;;;;;;5014770;28;20014;-74
2022/09/03 12:39:19;;;;;;;0.68;0.45;;;26.60;95.30;;;;;;5015183;28;20093;-75
2022/09/03 12:41:55;;;;;;;1.00;0.60;;;26.70;93.60;;;;;;5015216;28;20019;-76
2022/09/03 12:44:28;;;;;;;2.92;0.50;;;26.70;94.10;;;;;;5015022;28;20022;-79
2022/09/03 12:47:09;;;;;;;0.70;0.60;;;26.80;94.80;;;;;;5014088;28;20561;-75
2022/09/03 12:49:47;;;;;;;4.45;0.60;;;26.90;93.70;;;;;;5014030;28;20057;-71
2022/09/03 12:52:18;;;;;;;1.52;0.60;;;27.00;93.30;;;;;;5015143;28;20057;-76
2022/09/03 12:55:17;;;;;;;1.63;0.68;;;27.10;94.90;;;;;;5015478;28;20053;-73
2022/09/03 12:57:51;;;;;;;0.50;0.40;;;27.40;92.70;;;;;;4992641;28;20042;-76
2022/09/03 13:00:18;;;;;;;0.32;0.30;;;27.50;94.20;;;;;;5015044;28;21037;-74
2022/09/03 13:03:20;;;;;;;0.50;0.38;;;27.70;93.90;;;;;;5015275;28;20168;-77
2022/09/03 13:05:53;;;;;;;1.80;0.57;;;27.80;91.80;;;;;;5015039;28;20038;-75
2022/09/03 13:08:26;;;;;;;0.70;0.60;;;27.80;93.30;;;;;;5014651;28;20034;-73
2022/09/03 13:10:58;;;;;;;1.57;0.80;;;27.90;93.30;;;;;;5001631;28;20042;-74
2022/09/03 13:13:25;;;;;;;2.50;0.75;;;28.10;93.30;;;;;;4995834;28;21068;-75
2022/09/03 13:16:17;;;;;;;1.10;0.40;;;27.90;92.80;;;;;;4994058;28;20054;-75
2022/09/03 13:19:18;;;;;;;0.63;0.50;;;27.40;91.40;;;;;;4979505;28;20035;-72
2022/09/03 13:22:19;;;;;;;1.35;0.50;;;27.00;91.60;;;;;;4935153;29;20032;-73
2022/09/03 13:24:58;;;;;;;0.50;0.50;;;27.10;91.40;;;;;;4994903;28;20034;-74